createdAt,value
2022-07-30T00:33:43.766Z,0.00
2022-07-30T00:38:43.871Z,0.00
2022-07-30T00:43:43.984Z,0.00
2022-07-30T00:48:44.108Z,0.00
2022-07-30T00:53:44.193Z,0.00
2022-07-30T00:58:44.440Z,0.00
2022-07-30T01:03:44.550Z,0.00
2022-07-30T01:08:45.658Z,0.00
2022-07-30T01:13:46.740Z,0.00
2022-07-30T01:18:45.870Z,0.00
2022-07-30T01:23:47.676Z,0.00
2022-07-30T01:28:46.780Z,0.00
2022-07-30T01:33:47.895Z,0.00
2022-07-30T01:38:49.042Z,0.00
2022-07-30T01:43:51.167Z,0.00
2022-07-30T01:48:50.346Z,0.00
2022-07-30T01:53:51.484Z,0.00
2022-07-30T01:58:53.594Z,0.00
2022-07-30T02:03:53.834Z,0.00
2022-07-30T02:08:54.937Z,0.00
2022-07-30T02:13:56.045Z,0.00
2022-07-30T02:18:56.178Z,0.00
2022-07-30T02:23:55.516Z,0.00
2022-07-30T02:28:56.658Z,0.00
2022-07-30T02:33:59.791Z,0.00
2022-07-30T02:38:58.928Z,0.00
2022-07-30T02:44:00.089Z,0.00
2022-07-30T02:49:02.251Z,0.00
2022-07-30T02:54:01.438Z,0.00
2022-07-30T02:59:02.529Z,0.00
2022-07-30T03:04:04.634Z,0.00
2022-07-30T03:09:03.742Z,0.00
2022-07-30T03:14:05.843Z,0.00
2022-07-30T03:19:05.947Z,0.00
2022-07-30T03:24:05.058Z,4.00
2022-07-30T03:29:07.170Z,4.00
2022-07-30T03:34:06.476Z,8.00
2022-07-30T03:39:06.589Z,12.00
2022-07-30T03:44:10.735Z,16.00
2022-07-30T03:49:09.917Z,24.00
2022-07-30T03:54:13.015Z,52.00
2022-07-30T03:59:08.697Z,80.00
2022-07-30T04:04:09.982Z,128.00
2022-07-30T04:09:12.115Z,192.00
2022-07-30T04:14:11.251Z,228.00
2022-07-30T04:19:13.346Z,216.00
2022-07-30T04:24:12.467Z,252.00
2022-07-30T04:29:18.087Z,252.00
2022-07-30T04:34:13.509Z,272.00
2022-07-30T04:39:16.615Z,328.00
2022-07-30T04:44:15.739Z,496.00
2022-07-30T04:49:16.951Z,744.00
2022-07-30T04:54:19.079Z,936.00
2022-07-30T04:59:18.180Z,972.00
2022-07-30T05:04:19.299Z,848.00
2022-07-30T05:09:21.410Z,940.00
2022-07-30T05:14:21.556Z,1044.00
2022-07-30T05:19:21.685Z,1072.00
2022-07-30T05:24:20.794Z,1096.00
2022-07-30T05:29:22.898Z,1140.00
2022-07-30T05:34:22.476Z,1568.00
2022-07-30T05:39:22.653Z,1656.00
2022-07-30T05:44:24.270Z,1552.00
2022-07-30T05:49:21.511Z,1328.00
2022-07-30T05:54:24.729Z,1492.00
2022-07-30T05:59:24.022Z,2068.00
2022-07-30T06:04:26.215Z,3076.00
2022-07-30T06:09:36.324Z,3988.00
2022-07-30T06:14:26.399Z,4276.00
2022-07-30T06:19:27.503Z,3860.00
2022-07-30T06:24:29.178Z,5272.00
2022-07-30T06:29:29.305Z,5868.00
2022-07-30T06:34:28.396Z,4472.00
2022-07-30T06:39:53.691Z,5016.00
2022-07-30T06:44:29.451Z,6348.00
2022-07-30T06:49:30.557Z,8224.00
2022-07-30T06:54:30.668Z,8392.00
2022-07-30T06:59:32.796Z,9144.00
2022-07-30T07:04:32.831Z,8964.00
2022-07-30T07:09:34.970Z,9028.00
2022-07-30T07:14:36.924Z,8740.00
2022-07-30T07:20:01.195Z,8268.00
2022-07-30T07:24:36.980Z,8056.00
2022-07-30T07:29:36.158Z,7576.00
2022-07-30T07:34:37.267Z,8028.00
2022-07-30T07:39:42.216Z,8056.00
2022-07-30T07:44:39.543Z,7100.00
2022-07-30T07:49:40.774Z,6640.00
2022-07-30T07:54:41.894Z,6116.00
2022-07-30T07:59:41.679Z,6932.00
2022-07-30T08:04:42.825Z,6932.00
2022-07-30T08:09:45.125Z,7156.00
2022-07-30T08:14:45.268Z,7568.00
2022-07-30T08:19:44.422Z,8084.00
2022-07-30T08:24:49.618Z,7264.00
2022-07-30T08:29:46.784Z,6456.00
2022-07-30T08:34:48.953Z,6856.00
2022-07-30T08:39:48.099Z,6736.00
2022-07-30T08:44:49.258Z,6636.00
2022-07-30T08:49:51.381Z,6536.00
2022-07-30T08:54:51.595Z,6664.00
2022-07-30T09:00:00.735Z,6572.00
2022-07-30T09:04:50.830Z,6760.00
2022-07-30T09:09:52.382Z,6904.00
2022-07-30T09:14:53.533Z,7112.00
2022-07-30T09:19:55.740Z,7656.00
2022-07-30T09:24:54.963Z,9472.00
2022-07-30T09:29:56.114Z,9524.00
2022-07-30T09:34:58.234Z,9600.00
2022-07-30T09:39:59.613Z,8320.00
2022-07-30T09:44:57.860Z,5680.00
2022-07-30T09:49:59.301Z,4532.00
2022-07-30T09:54:58.870Z,4380.00
2022-07-30T09:59:58.097Z,4340.00
2022-07-30T10:05:00.166Z,7804.00
2022-07-30T10:09:59.318Z,8416.00
2022-07-30T10:15:01.400Z,6308.00
2022-07-30T10:20:03.055Z,7476.00
2022-07-30T10:25:03.004Z,7444.00
2022-07-30T10:30:03.467Z,9636.00
2022-07-30T10:35:04.464Z,5824.00
2022-07-30T10:40:04.838Z,5688.00
2022-07-30T10:45:04.259Z,8580.00
2022-07-30T10:50:06.386Z,8008.00
2022-07-30T10:55:06.840Z,8180.00
2022-07-30T11:00:06.996Z,8108.00
2022-07-30T11:05:06.394Z,5372.00
2022-07-30T11:10:09.699Z,6288.00
2022-07-30T11:15:18.285Z,8204.00
2022-07-30T11:20:07.218Z,7780.00
2022-07-30T11:25:12.739Z,8360.00
2022-07-30T11:30:07.162Z,8888.00
2022-07-30T11:35:08.325Z,9536.00
2022-07-30T11:40:09.562Z,7328.00
2022-07-30T11:45:10.793Z,7536.00
2022-07-30T11:50:12.940Z,5968.00
2022-07-30T11:55:12.064Z,6016.00
2022-07-30T12:00:13.184Z,6176.00
2022-07-30T12:05:15.336Z,6800.00
2022-07-30T12:10:26.818Z,6424.00
2022-07-30T12:15:15.492Z,5364.00
2022-07-30T12:20:17.657Z,4604.00
2022-07-30T12:25:16.805Z,2856.00
2022-07-30T12:30:19.937Z,3824.00
2022-07-30T12:35:19.076Z,5660.00
2022-07-30T12:40:20.195Z,8396.00
2022-07-30T12:45:21.341Z,8196.00
2022-07-30T12:50:22.495Z,11180.00
2022-07-30T12:55:23.679Z,9036.00
2022-07-30T13:00:24.939Z,6740.00
2022-07-30T13:05:26.089Z,8824.00
2022-07-30T13:10:31.169Z,8560.00
2022-07-30T13:15:27.758Z,8688.00
2022-07-30T13:20:26.936Z,5156.00
2022-07-30T13:25:38.870Z,4804.00
2022-07-30T13:30:29.093Z,5868.00
2022-07-30T13:35:36.166Z,6812.00
2022-07-30T13:40:32.319Z,7812.00
2022-07-30T13:45:31.431Z,9540.00
2022-07-30T13:50:32.609Z,8696.00
2022-07-30T13:55:32.332Z,6524.00
2022-07-30T14:00:33.451Z,6224.00
2022-07-30T14:05:35.565Z,4924.00
2022-07-30T14:10:35.501Z,7452.00
2022-07-30T14:15:36.616Z,6856.00
2022-07-30T14:20:37.073Z,6700.00
2022-07-30T14:25:36.260Z,6696.00
2022-07-30T14:30:38.405Z,6824.00
2022-07-30T14:35:37.524Z,6992.00
2022-07-30T14:40:38.684Z,7220.00
2022-07-30T14:45:40.792Z,7684.00
2022-07-30T14:51:03.366Z,8176.00
2022-07-30T14:55:40.905Z,8208.00
2022-07-30T15:00:48.473Z,4140.00
2022-07-30T15:05:41.990Z,8092.00
2022-07-30T15:10:43.124Z,8344.00
2022-07-30T15:15:45.216Z,8684.00
2022-07-30T15:20:44.223Z,8656.00
2022-07-30T15:25:45.360Z,9112.00
2022-07-30T15:30:44.489Z,9264.00
2022-07-30T15:35:45.643Z,8560.00
2022-07-30T15:40:46.829Z,8120.00
2022-07-30T15:45:55.317Z,8128.00
2022-07-30T15:50:47.966Z,8036.00
2022-07-30T15:55:51.076Z,8100.00
2022-07-30T16:00:50.298Z,3932.00
2022-07-30T16:05:52.966Z,6352.00
2022-07-30T16:10:52.198Z,8580.00
2022-07-30T16:15:54.501Z,9112.00
2022-07-30T16:20:53.630Z,8652.00
2022-07-30T16:25:54.797Z,6352.00
2022-07-30T16:30:55.978Z,3888.00
2022-07-30T16:35:58.096Z,5688.00
2022-07-30T16:40:57.891Z,4808.00
2022-07-30T16:45:57.028Z,5420.00
2022-07-30T16:50:58.192Z,4908.00
2022-07-30T16:56:00.337Z,5028.00
2022-07-30T17:00:59.501Z,4616.00
2022-07-30T17:06:00.641Z,6888.00
2022-07-30T17:11:03.763Z,5024.00
2022-07-30T17:16:01.772Z,5288.00
2022-07-30T17:21:04.912Z,4400.00
2022-07-30T17:26:04.002Z,2800.00
2022-07-30T17:31:05.200Z,3004.00
2022-07-30T17:36:06.323Z,2708.00
2022-07-30T17:41:11.746Z,4008.00
2022-07-30T17:46:07.424Z,3772.00
2022-07-30T17:51:08.908Z,2336.00
2022-07-30T17:56:08.027Z,1716.00
2022-07-30T18:01:08.015Z,1428.00
2022-07-30T18:06:09.190Z,1152.00
2022-07-30T18:11:13.760Z,1396.00
2022-07-30T18:16:11.105Z,948.00
2022-07-30T18:21:12.270Z,740.00
2022-07-30T18:26:18.431Z,748.00
2022-07-30T18:31:13.562Z,416.00
2022-07-30T18:36:14.722Z,252.00
2022-07-30T18:41:16.869Z,164.00
2022-07-30T18:46:16.077Z,88.00
2022-07-30T18:51:17.222Z,48.00
2022-07-30T18:56:20.334Z,36.00
2022-07-30T19:01:19.564Z,36.00
2022-07-30T19:06:21.604Z,32.00
2022-07-30T19:11:20.794Z,24.00
2022-07-30T19:16:21.941Z,8.00
2022-07-30T19:21:23.062Z,4.00
2022-07-30T19:26:25.206Z,0.00
2022-07-30T19:31:24.356Z,0.00
2022-07-30T19:36:25.542Z,0.00
2022-07-30T19:41:27.690Z,0.00
2022-07-30T19:46:28.732Z,0.00
2022-07-30T19:52:10.513Z,0.00
2022-07-30T19:56:29.797Z,0.00
2022-07-30T20:01:40.088Z,0.00
2022-07-30T20:06:30.901Z,0.00
2022-07-30T20:11:36.394Z,0.00
2022-07-30T20:16:30.908Z,0.00
2022-07-30T20:21:56.371Z,0.00
2022-07-30T20:26:34.053Z,0.00
2022-07-30T20:31:32.835Z,0.00
2022-07-30T20:36:32.115Z,0.00
2022-07-30T20:41:33.223Z,0.00
2022-07-30T20:46:35.336Z,0.00
2022-07-30T20:51:35.472Z,0.00
2022-07-30T20:56:35.590Z,0.00
2022-07-30T21:01:34.804Z,0.00
2022-07-30T21:06:34.831Z,0.00
2022-07-30T21:11:37.985Z,0.00
2022-07-30T21:16:35.868Z,0.00
2022-07-30T21:21:41.547Z,0.00
2022-07-30T21:26:36.896Z,0.00
2022-07-30T21:32:02.055Z,0.00
2022-07-30T21:36:39.555Z,0.00
2022-07-30T21:41:40.322Z,0.00
2022-07-30T21:46:39.865Z,0.00
2022-07-30T21:51:41.981Z,0.00
2022-07-30T21:56:43.623Z,0.00
2022-07-30T22:01:47.755Z,0.00
2022-07-30T22:06:42.959Z,0.00
2022-07-30T22:11:46.098Z,0.00
2022-07-30T22:16:46.072Z,0.00
2022-07-30T22:21:46.345Z,0.00
2022-07-30T22:26:44.131Z,0.00
2022-07-30T22:31:45.139Z,0.00
2022-07-30T22:36:45.680Z,0.00
2022-07-30T22:41:45.045Z,0.00
2022-07-30T22:46:46.353Z,0.00
2022-07-30T22:52:01.849Z,0.00
2022-07-30T22:56:48.300Z,0.00
2022-07-30T23:01:47.393Z,0.00
2022-07-30T23:06:49.513Z,0.00
2022-07-30T23:11:49.929Z,0.00
2022-07-30T23:16:50.121Z,0.00
2022-07-30T23:21:50.620Z,0.00
2022-07-30T23:26:50.484Z,0.00
2022-07-30T23:31:51.628Z,0.00
2022-07-30T23:36:50.807Z,0.00
2022-07-30T23:41:52.922Z,0.00
2022-07-30T23:46:52.080Z,0.00
2022-07-30T23:51:53.203Z,0.00
2022-07-30T23:56:55.319Z,0.00
